San Diego (SAN/KSAN)

Information

Location
San Diego, CA
Local Time
15:38 / 3:38 pm
GMT Time
23:38 / 11:38 pm
Gates
No FAA reported delays
METAR KSAN 182327Z 30010KT 9SM FEW005 BKN011 BKN220 18/14 A3007 RMK AO2 T01780139
TAF KSAN 182028Z 1820/1924 24009KT P6SM SCT250 FM190200 20005KT P6SM SCT008 SCT250 FM190300 20006KT 5SM BR BKN007 FM191200 19006KT P6SM OVC015 FM192300 24010KT P6SM VCSH OVC025